createdAt,value
2023-02-13T00:00:47.669Z,7.77
2023-02-13T00:03:14.897Z,7.57
2023-02-13T00:05:41.720Z,6.77
2023-02-13T00:08:08.529Z,7.87
2023-02-13T00:10:36.587Z,5.97
2023-02-13T00:13:03.473Z,11.07
2023-02-13T00:15:30.362Z,7.17
2023-02-13T00:17:57.244Z,8.83
2023-02-13T00:20:24.091Z,7.60
2023-02-13T00:22:50.956Z,8.20
2023-02-13T00:25:17.921Z,7.70
2023-02-13T00:27:44.785Z,9.63
2023-02-13T00:30:12.343Z,9.53
2023-02-13T00:32:39.280Z,8.87
2023-02-13T00:35:06.534Z,9.60
2023-02-13T00:37:34.362Z,6.90
2023-02-13T00:40:01.216Z,9.57
2023-02-13T00:42:28.125Z,12.10
2023-02-13T00:44:55.180Z,9.07
2023-02-13T00:47:22.272Z,9.97
2023-02-13T00:49:49.208Z,11.40
2023-02-13T00:52:16.034Z,10.67
2023-02-13T00:54:42.874Z,12.37
2023-02-13T00:57:09.735Z,10.13
2023-02-13T00:59:36.568Z,9.37
2023-02-13T01:02:03.820Z,11.40
2023-02-13T01:04:30.633Z,11.63
2023-02-13T01:06:57.853Z,15.00
2023-02-13T01:09:25.570Z,11.87
2023-02-13T01:11:52.512Z,10.37
2023-02-13T01:14:19.393Z,15.40
2023-02-13T01:16:46.190Z,11.47
2023-02-13T01:19:13.039Z,15.43
2023-02-13T01:21:39.829Z,12.50
2023-02-13T01:24:07.192Z,14.33
2023-02-13T01:26:34.109Z,14.40
2023-02-13T01:29:01.793Z,13.63
2023-02-13T01:31:28.688Z,12.80
2023-02-13T01:33:59.679Z,12.20
2023-02-13T01:36:27.486Z,15.53
2023-02-13T01:38:58.086Z,15.90
2023-02-13T01:41:27.781Z,13.10
2023-02-13T01:43:58.785Z,12.53
2023-02-13T01:46:43.090Z,14.43
2023-02-13T01:49:18.572Z,13.37
2023-02-13T01:51:47.243Z,14.27
2023-02-13T01:54:30.914Z,13.37
2023-02-13T01:57:12.648Z,11.07
2023-02-13T02:00:00.180Z,14.40
2023-02-13T02:02:30.061Z,14.60
2023-02-13T02:04:57.024Z,15.30
2023-02-13T02:07:28.836Z,16.50
2023-02-13T02:10:05.206Z,18.47
2023-02-13T02:12:52.133Z,17.90
2023-02-13T02:15:20.108Z,13.03
2023-02-13T02:17:47.281Z,14.70
2023-02-13T02:20:31.732Z,15.13
2023-02-13T02:23:35.189Z,16.13
2023-02-13T02:26:13.809Z,15.60
2023-02-13T02:28:54.994Z,16.63
2023-02-13T02:31:48.748Z,17.97
2023-02-13T02:34:51.365Z,17.70
2023-02-13T02:37:39.064Z,19.23
2023-02-13T02:40:11.525Z,17.97
2023-02-13T02:43:50.483Z,16.37
2023-02-13T02:46:32.164Z,18.83
2023-02-13T02:49:20.494Z,16.53
2023-02-13T02:52:05.384Z,21.17
2023-02-13T02:55:09.448Z,20.47
2023-02-13T02:58:04.248Z,18.70
2023-02-13T03:00:55.199Z,17.43
2023-02-13T03:03:43.467Z,22.40
2023-02-13T03:06:21.798Z,17.33
2023-02-13T03:09:20.367Z,19.83
2023-02-13T03:12:11.712Z,19.83
2023-02-13T03:14:38.778Z,23.40
2023-02-13T03:17:30.029Z,22.17
2023-02-13T03:20:21.587Z,16.80
2023-02-13T03:23:17.242Z,21.10
2023-02-13T03:26:13.904Z,20.07
2023-02-13T03:29:12.683Z,22.67
2023-02-13T03:32:14.474Z,21.70
2023-02-13T03:35:13.492Z,18.27
2023-02-13T03:37:56.115Z,14.67
2023-02-13T03:41:10.287Z,17.70
2023-02-13T03:43:52.252Z,16.43
2023-02-13T03:46:21.242Z,15.87
2023-02-13T03:49:07.160Z,16.77
2023-02-13T03:51:46.070Z,22.07
2023-02-13T03:54:44.187Z,19.57
2023-02-13T03:57:36.955Z,19.30
2023-02-13T04:00:10.096Z,13.53
2023-02-13T04:02:58.908Z,13.10
2023-02-13T04:05:30.965Z,24.10
2023-02-13T04:07:57.793Z,20.63
2023-02-13T04:10:27.920Z,17.00
2023-02-13T04:13:15.923Z,18.90
2023-02-13T04:16:08.704Z,13.93
2023-02-13T04:18:36.632Z,15.73
2023-02-13T04:21:08.078Z,18.03
2023-02-13T04:23:36.906Z,18.07
2023-02-13T04:26:08.859Z,22.57
2023-02-13T04:28:35.721Z,19.47
2023-02-13T04:31:02.708Z,20.43
2023-02-13T04:33:29.725Z,21.87
2023-02-13T04:35:56.943Z,20.30
2023-02-13T04:38:23.923Z,18.53
2023-02-13T04:40:50.714Z,19.17
2023-02-13T04:43:17.488Z,19.33
2023-02-13T04:45:48.480Z,14.27
2023-02-13T04:48:15.741Z,20.00
2023-02-13T04:50:42.779Z,21.80
2023-02-13T04:53:09.732Z,17.60
2023-02-13T04:55:36.602Z,22.50
2023-02-13T04:58:03.420Z,17.83
2023-02-13T05:00:30.561Z,18.07
2023-02-13T05:03:09.407Z,19.13
2023-02-13T05:05:36.884Z,13.43
2023-02-13T05:08:04.435Z,16.73
2023-02-13T05:10:31.700Z,18.00
2023-02-13T05:12:58.749Z,22.27
2023-02-13T05:15:25.905Z,19.20
2023-02-13T05:17:52.827Z,17.70
2023-02-13T05:20:19.895Z,18.27
2023-02-13T05:23:11.860Z,19.60
2023-02-13T05:25:41.905Z,14.60
2023-02-13T05:28:27.747Z,16.70
2023-02-13T05:30:54.800Z,19.20
2023-02-13T05:33:21.699Z,16.80
2023-02-13T05:35:48.539Z,17.13
2023-02-13T05:38:15.623Z,18.87
2023-02-13T05:40:42.462Z,15.77
2023-02-13T05:43:09.330Z,19.70
2023-02-13T05:45:36.171Z,18.03
2023-02-13T05:48:04.986Z,17.83
2023-02-13T05:50:31.765Z,20.20
2023-02-13T05:52:58.586Z,19.43
2023-02-13T05:55:25.476Z,19.30
2023-02-13T05:57:57.728Z,19.73
2023-02-13T06:00:25.556Z,19.50
2023-02-13T06:02:52.395Z,20.60
2023-02-13T06:05:19.283Z,19.63
2023-02-13T06:07:46.071Z,18.00
2023-02-13T06:10:12.982Z,17.73
2023-02-13T06:12:39.892Z,16.20
2023-02-13T06:15:07.484Z,17.87
2023-02-13T06:17:34.302Z,18.77
2023-02-13T06:20:01.106Z,19.97
2023-02-13T06:22:27.928Z,13.80
2023-02-13T06:24:54.796Z,15.27
2023-02-13T06:27:21.616Z,14.47
2023-02-13T06:29:48.485Z,15.63
2023-02-13T06:32:15.270Z,19.07
2023-02-13T06:34:42.055Z,15.93
2023-02-13T06:37:08.860Z,17.43
2023-02-13T06:39:35.663Z,17.67
2023-02-13T06:42:02.476Z,19.20
2023-02-13T06:44:29.305Z,18.17
2023-02-13T06:46:56.110Z,19.83
2023-02-13T06:49:23.017Z,21.03
2023-02-13T06:51:49.807Z,16.50
2023-02-13T06:54:16.719Z,16.43
2023-02-13T06:56:43.536Z,16.23
2023-02-13T06:59:10.397Z,17.17
2023-02-13T07:01:37.220Z,20.53
2023-02-13T07:04:04.088Z,17.27
2023-02-13T07:06:31.754Z,17.43
2023-02-13T07:09:03.133Z,18.57
2023-02-13T07:11:30.380Z,18.47
2023-02-13T07:13:57.478Z,16.77
2023-02-13T07:16:24.556Z,13.73
2023-02-13T07:18:51.422Z,16.17
2023-02-13T07:21:19.373Z,16.07
2023-02-13T07:23:46.301Z,18.50
2023-02-13T07:26:13.157Z,15.50
2023-02-13T07:28:40.028Z,17.13
2023-02-13T07:31:07.184Z,19.60
2023-02-13T07:33:35.054Z,17.47
2023-02-13T07:36:03.661Z,18.73
2023-02-13T07:38:34.035Z,19.37
2023-02-13T07:41:04.657Z,17.50
2023-02-13T07:43:32.329Z,19.00
2023-02-13T07:46:04.156Z,18.80
2023-02-13T07:48:31.744Z,13.17
2023-02-13T07:51:05.872Z,20.67
2023-02-13T07:53:32.970Z,24.80
2023-02-13T07:55:59.920Z,31.13
2023-02-13T07:58:26.838Z,24.67
2023-02-13T08:00:53.654Z,23.87
2023-02-13T08:03:21.575Z,20.93
2023-02-13T08:05:49.509Z,23.70
2023-02-13T08:08:17.298Z,24.70
2023-02-13T08:11:02.915Z,23.30
2023-02-13T08:13:29.885Z,29.33
2023-02-13T08:15:57.017Z,20.67
2023-02-13T08:18:23.961Z,19.63
2023-02-13T08:20:50.894Z,15.40
2023-02-13T08:23:17.925Z,15.37
2023-02-13T08:25:45.022Z,26.47
2023-02-13T08:28:11.956Z,19.63
2023-02-13T08:30:38.960Z,21.97
2023-02-13T08:33:05.922Z,23.03
2023-02-13T08:35:33.011Z,20.50
2023-02-13T08:38:05.269Z,21.13
2023-02-13T08:40:33.118Z,22.73
2023-02-13T08:43:02.708Z,24.17
2023-02-13T08:45:30.225Z,20.77
2023-02-13T08:48:01.378Z,21.63
2023-02-13T08:50:28.782Z,21.10
2023-02-13T08:52:55.675Z,20.90
2023-02-13T08:55:22.563Z,20.27
2023-02-13T08:57:49.449Z,20.73
2023-02-13T09:00:16.594Z,15.47
2023-02-13T09:02:43.516Z,21.37
2023-02-13T09:05:10.583Z,16.83
2023-02-13T09:07:37.546Z,25.10
2023-02-13T09:10:05.162Z,19.93
2023-02-13T09:12:32.080Z,22.97
2023-02-13T09:14:58.954Z,18.02
2023-02-13T09:17:25.802Z,20.00
2023-02-13T09:19:52.889Z,19.17
2023-02-13T09:22:20.697Z,20.42
2023-02-13T09:24:47.708Z,22.88
2023-02-13T09:27:14.531Z,21.15
2023-02-13T09:29:41.454Z,18.10
2023-02-13T09:32:08.378Z,21.45
2023-02-13T09:34:35.348Z,21.83
2023-02-13T09:37:02.168Z,19.67
2023-02-13T09:39:29.075Z,21.65
2023-02-13T09:41:57.599Z,17.63
2023-02-13T09:44:45.822Z,19.98
2023-02-13T09:47:56.500Z,19.25
2023-02-13T09:50:31.713Z,19.13
2023-02-13T09:53:01.234Z,22.60
2023-02-13T09:55:56.415Z,21.83
2023-02-13T09:58:53.588Z,18.40
2023-02-13T10:01:29.370Z,12.68
2023-02-13T10:04:33.985Z,13.98
2023-02-13T10:07:30.262Z,12.70
2023-02-13T10:10:39.701Z,14.77
2023-02-13T10:13:51.080Z,16.08
2023-02-13T10:16:25.524Z,16.17
2023-02-13T10:19:20.331Z,12.10
2023-02-13T10:21:58.248Z,13.18
2023-02-13T10:24:49.542Z,12.25
2023-02-13T10:27:34.738Z,12.90
2023-02-13T10:30:24.496Z,13.30
2023-02-13T10:33:21.986Z,10.80
2023-02-13T10:36:16.973Z,12.55
2023-02-13T10:38:55.784Z,13.77
2023-02-13T10:41:53.060Z,14.38
2023-02-13T10:44:36.612Z,13.38
2023-02-13T10:47:33.908Z,12.10
2023-02-13T10:50:33.881Z,11.48
2023-02-13T10:53:28.824Z,11.98
2023-02-13T10:56:18.276Z,11.15
2023-02-13T10:59:30.383Z,10.77
2023-02-13T11:02:09.985Z,11.20
2023-02-13T11:04:36.846Z,11.57
2023-02-13T11:07:14.628Z,11.00
2023-02-13T11:09:48.628Z,8.95
2023-02-13T11:12:32.533Z,9.57
2023-02-13T11:15:03.416Z,11.00
2023-02-13T11:17:38.665Z,8.32
2023-02-13T11:20:31.603Z,9.63
2023-02-13T11:23:30.991Z,9.63
2023-02-13T11:26:10.002Z,9.55
2023-02-13T11:28:47.756Z,8.32
2023-02-13T11:31:22.395Z,7.20
2023-02-13T11:33:49.812Z,8.10
2023-02-13T11:36:27.515Z,10.30
2023-02-13T11:39:20.162Z,10.05
2023-02-13T11:41:52.265Z,8.50
2023-02-13T11:44:28.058Z,11.02
2023-02-13T11:47:02.197Z,10.25
2023-02-13T11:49:37.062Z,9.43
2023-02-13T11:52:23.829Z,11.13
2023-02-13T11:55:04.998Z,10.23
2023-02-13T11:57:36.397Z,9.68
2023-02-13T12:00:39.971Z,10.05
2023-02-13T12:03:22.133Z,8.57
2023-02-13T12:06:13.532Z,9.10
2023-02-13T12:08:45.936Z,8.05
2023-02-13T12:11:39.077Z,7.57
2023-02-13T12:14:10.726Z,8.75
2023-02-13T12:16:51.204Z,8.07
2023-02-13T12:19:28.600Z,6.45
2023-02-13T12:22:15.355Z,6.93
2023-02-13T12:25:12.502Z,7.88
2023-02-13T12:27:57.439Z,6.80
2023-02-13T12:30:48.644Z,7.32
2023-02-13T12:34:00.415Z,6.70
2023-02-13T12:36:55.580Z,4.93
2023-02-13T12:39:46.010Z,4.50
2023-02-13T12:42:15.589Z,5.22
2023-02-13T12:44:51.221Z,7.18
2023-02-13T12:47:30.312Z,8.27
2023-02-13T12:50:32.358Z,7.47
2023-02-13T12:53:20.122Z,5.00
2023-02-13T12:56:31.901Z,5.05
2023-02-13T12:59:20.938Z,6.22
2023-02-13T13:02:18.632Z,7.88
2023-02-13T13:05:20.646Z,7.93
2023-02-13T13:08:22.677Z,5.15
2023-02-13T13:11:20.970Z,4.50
2023-02-13T13:14:05.180Z,5.20
2023-02-13T13:16:58.803Z,5.35
2023-02-13T13:19:52.616Z,5.10
2023-02-13T13:22:37.730Z,4.40
2023-02-13T13:25:22.564Z,5.28
2023-02-13T13:27:55.708Z,4.57
2023-02-13T13:30:34.522Z,6.38
2023-02-13T13:33:22.620Z,3.83
2023-02-13T13:36:21.107Z,5.05
2023-02-13T13:39:12.174Z,4.57
2023-02-13T13:42:02.415Z,3.55
2023-02-13T13:44:50.066Z,3.55
2023-02-13T13:47:38.087Z,3.60
2023-02-13T13:50:06.992Z,2.95
2023-02-13T13:52:38.957Z,2.92
2023-02-13T13:55:26.708Z,2.45
2023-02-13T13:58:00.614Z,3.50
2023-02-13T14:00:30.515Z,3.55
2023-02-13T14:03:24.441Z,3.38
2023-02-13T14:06:05.861Z,4.38
2023-02-13T14:08:41.453Z,4.25
2023-02-13T14:11:30.037Z,4.97
2023-02-13T14:13:57.909Z,4.45
2023-02-13T14:16:46.173Z,2.88
2023-02-13T14:19:40.706Z,3.28
2023-02-13T14:22:19.813Z,2.72
2023-02-13T14:24:59.892Z,2.45
2023-02-13T14:27:39.540Z,3.22
2023-02-13T14:30:27.909Z,2.47
2023-02-13T14:32:56.040Z,4.00
2023-02-13T14:35:33.583Z,3.33
2023-02-13T14:38:08.248Z,4.35
2023-02-13T14:40:49.232Z,3.50
2023-02-13T14:43:49.847Z,2.65
2023-02-13T14:46:34.083Z,2.92
2023-02-13T14:49:19.336Z,2.88
2023-02-13T14:51:53.107Z,2.58
2023-02-13T14:54:43.560Z,3.83
2023-02-13T14:57:22.959Z,4.68
2023-02-13T14:59:59.405Z,2.85
2023-02-13T15:02:35.342Z,6.60
2023-02-13T15:05:12.874Z,3.10
2023-02-13T15:08:05.279Z,4.32
2023-02-13T15:10:49.596Z,3.15
2023-02-13T15:13:24.054Z,3.30
2023-02-13T15:16:06.963Z,2.53
2023-02-13T15:18:49.555Z,2.20
2023-02-13T15:21:20.539Z,3.50
2023-02-13T15:23:56.684Z,3.63
2023-02-13T15:26:28.750Z,2.63
2023-02-13T15:29:17.441Z,2.67
2023-02-13T15:31:52.499Z,3.88
2023-02-13T15:34:37.115Z,2.83
2023-02-13T15:37:03.965Z,3.42
2023-02-13T15:39:32.627Z,3.25
2023-02-13T15:42:03.089Z,2.42
2023-02-13T15:44:35.937Z,2.90
2023-02-13T15:47:29.375Z,3.67
2023-02-13T15:49:56.656Z,3.25
2023-02-13T15:52:33.475Z,3.65
2023-02-13T15:55:00.934Z,2.78
2023-02-13T15:57:28.828Z,2.75
2023-02-13T16:00:00.236Z,3.92
2023-02-13T16:02:46.280Z,3.58
2023-02-13T16:05:20.035Z,3.10
2023-02-13T16:07:59.399Z,5.43
2023-02-13T16:10:36.947Z,2.90
2023-02-13T16:13:15.575Z,3.60
2023-02-13T16:15:43.870Z,3.80
2023-02-13T16:18:20.904Z,4.00
2023-02-13T16:20:56.166Z,3.90
2023-02-13T16:23:23.383Z,5.10
2023-02-13T16:25:50.382Z,3.08
2023-02-13T16:28:27.388Z,3.70
2023-02-13T16:31:03.044Z,6.28
2023-02-13T16:33:44.393Z,5.13
2023-02-13T16:36:11.182Z,4.65
2023-02-13T16:38:41.355Z,4.72
2023-02-13T16:41:22.964Z,5.18
2023-02-13T16:44:01.045Z,3.45
2023-02-13T16:46:48.568Z,3.53
2023-02-13T16:49:21.054Z,3.70
2023-02-13T16:52:15.274Z,2.85
2023-02-13T16:54:45.026Z,3.63
2023-02-13T16:57:14.583Z,4.05
2023-02-13T16:59:47.294Z,3.70
2023-02-13T17:02:27.099Z,4.38
2023-02-13T17:05:07.649Z,4.38
2023-02-13T17:07:38.355Z,5.25
2023-02-13T17:10:18.100Z,5.25
2023-02-13T17:12:46.366Z,5.70
2023-02-13T17:15:17.374Z,5.72
2023-02-13T17:17:44.713Z,8.60
2023-02-13T17:20:27.406Z,4.75
2023-02-13T17:22:57.973Z,6.22
2023-02-13T17:25:28.864Z,6.57
2023-02-13T17:27:59.515Z,5.30
2023-02-13T17:30:33.798Z,6.33
2023-02-13T17:33:07.750Z,7.20
2023-02-13T17:35:35.517Z,7.80
2023-02-13T17:38:03.363Z,5.93
2023-02-13T17:40:31.818Z,5.33
2023-02-13T17:43:00.004Z,8.37
2023-02-13T17:45:30.973Z,10.33
2023-02-13T17:47:58.300Z,8.02
2023-02-13T17:50:28.035Z,6.73
2023-02-13T17:52:56.258Z,8.15
2023-02-13T17:55:26.733Z,7.80
2023-02-13T17:57:56.537Z,9.73
2023-02-13T18:00:27.977Z,10.45
2023-02-13T18:02:55.547Z,9.37
2023-02-13T18:05:22.889Z,14.33
2023-02-13T18:07:50.366Z,15.53
2023-02-13T18:10:24.566Z,13.70
2023-02-13T18:12:53.533Z,12.43
2023-02-13T18:15:21.093Z,15.23
2023-02-13T18:17:48.222Z,12.80
2023-02-13T18:20:20.601Z,18.87
2023-02-13T18:22:50.583Z,16.57
2023-02-13T18:25:19.660Z,15.03
2023-02-13T18:27:47.362Z,14.30
2023-02-13T18:30:18.243Z,11.13
2023-02-13T18:32:46.504Z,14.57
2023-02-13T18:35:13.393Z,13.57
2023-02-13T18:37:40.314Z,12.17
2023-02-13T18:40:10.112Z,11.10
2023-02-13T18:42:38.932Z,10.50
2023-02-13T18:45:06.596Z,10.17
2023-02-13T18:47:33.420Z,10.83
2023-02-13T18:50:00.284Z,9.47
2023-02-13T18:52:27.161Z,11.17
2023-02-13T18:54:54.044Z,9.77
2023-02-13T18:57:20.995Z,10.77
2023-02-13T18:59:47.842Z,17.73
2023-02-13T19:02:14.791Z,12.77
2023-02-13T19:04:41.726Z,11.30
2023-02-13T19:07:08.539Z,10.47
2023-02-13T19:09:39.996Z,12.93
2023-02-13T19:12:12.092Z,14.87
2023-02-13T19:14:39.845Z,12.03
2023-02-13T19:17:08.488Z,12.80
2023-02-13T19:19:35.409Z,16.33
2023-02-13T19:22:02.697Z,16.53
2023-02-13T19:24:29.855Z,18.50
2023-02-13T19:26:56.625Z,19.27
2023-02-13T19:29:23.507Z,17.03
2023-02-13T19:31:50.361Z,16.60
2023-02-13T19:34:17.331Z,17.03
2023-02-13T19:36:44.195Z,19.40
2023-02-13T19:39:11.700Z,21.53
2023-02-13T19:41:40.647Z,14.90
2023-02-13T19:44:08.629Z,15.13
2023-02-13T19:46:37.201Z,15.33
2023-02-13T19:49:05.568Z,18.97
2023-02-13T19:51:34.908Z,16.43
2023-02-13T19:54:05.546Z,24.37
2023-02-13T19:56:36.195Z,18.97
2023-02-13T19:59:04.745Z,19.93
2023-02-13T20:01:31.729Z,23.23
2023-02-13T20:03:59.346Z,26.07
2023-02-13T20:06:35.748Z,26.73
2023-02-13T20:09:11.969Z,25.97
2023-02-13T20:11:41.615Z,21.10
2023-02-13T20:14:14.567Z,23.83
2023-02-13T20:16:42.939Z,26.87
2023-02-13T20:19:13.602Z,26.63
2023-02-13T20:21:42.320Z,26.63
2023-02-13T20:24:11.685Z,21.33
2023-02-13T20:26:39.927Z,28.03
2023-02-13T20:29:07.451Z,24.20
2023-02-13T20:31:35.374Z,25.83
2023-02-13T20:34:05.596Z,24.43
2023-02-13T20:36:32.979Z,25.63
2023-02-13T20:39:05.503Z,24.63
2023-02-13T20:41:35.140Z,24.00
2023-02-13T20:44:11.037Z,23.37
2023-02-13T20:46:39.560Z,24.67
2023-02-13T20:49:06.796Z,29.70
2023-02-13T20:51:34.380Z,27.97
2023-02-13T20:54:01.254Z,24.40
2023-02-13T20:56:29.176Z,19.73
2023-02-13T20:58:58.998Z,28.93
2023-02-13T21:01:33.604Z,25.73
2023-02-13T21:04:00.914Z,23.47
2023-02-13T21:06:32.746Z,18.50
2023-02-13T21:09:00.216Z,21.93
2023-02-13T21:11:30.621Z,23.63
2023-02-13T21:13:58.675Z,22.87
2023-02-13T21:16:29.467Z,19.93
2023-02-13T21:19:00.325Z,59.90
2023-02-13T21:21:31.531Z,56.70
2023-02-13T21:24:08.484Z,46.67
2023-02-13T21:26:36.155Z,30.90
2023-02-13T21:29:03.330Z,29.73
2023-02-13T21:31:38.135Z,34.03
2023-02-13T21:34:08.518Z,32.33
2023-02-13T21:36:37.142Z,28.47
2023-02-13T21:39:06.495Z,32.03
2023-02-13T21:41:33.492Z,37.57
2023-02-13T21:44:00.583Z,24.23
2023-02-13T21:46:31.606Z,18.53
2023-02-13T21:49:05.478Z,26.27
2023-02-13T21:51:35.107Z,35.37
2023-02-13T21:54:04.270Z,40.77
2023-02-13T21:56:37.985Z,36.77
2023-02-13T21:59:05.486Z,34.97
2023-02-13T22:01:36.233Z,38.07
2023-02-13T22:04:09.524Z,37.00
2023-02-13T22:06:39.431Z,42.10
2023-02-13T22:09:12.526Z,32.70
2023-02-13T22:11:40.578Z,34.73
2023-02-13T22:14:12.134Z,39.23
2023-02-13T22:16:42.901Z,33.33
2023-02-13T22:19:15.434Z,33.57
2023-02-13T22:21:42.786Z,35.77
2023-02-13T22:24:09.954Z,44.47
2023-02-13T22:26:41.077Z,34.50
2023-02-13T22:29:14.621Z,43.40
2023-02-13T22:31:42.442Z,49.30
2023-02-13T22:34:13.294Z,52.80
2023-02-13T22:36:40.921Z,33.93
2023-02-13T22:39:10.237Z,33.77
2023-02-13T22:41:38.004Z,26.03
2023-02-13T22:44:05.288Z,26.60
2023-02-13T22:46:34.495Z,33.67
2023-02-13T22:49:02.397Z,41.37
2023-02-13T22:51:35.485Z,35.87
2023-02-13T22:54:02.804Z,33.03
2023-02-13T22:56:31.514Z,35.23
2023-02-13T22:58:59.491Z,30.67
2023-02-13T23:01:28.301Z,30.20
2023-02-13T23:03:56.101Z,30.70
2023-02-13T23:06:23.969Z,31.07
2023-02-13T23:08:53.440Z,32.87
2023-02-13T23:11:42.935Z,39.70
2023-02-13T23:14:10.902Z,43.33
2023-02-13T23:16:58.828Z,38.30
2023-02-13T23:19:27.410Z,34.30
2023-02-13T23:21:54.486Z,35.43
2023-02-13T23:24:21.505Z,36.47
2023-02-13T23:26:48.423Z,35.27
2023-02-13T23:29:15.465Z,34.30
2023-02-13T23:31:42.427Z,30.53
2023-02-13T23:34:09.362Z,30.10
2023-02-13T23:36:36.180Z,28.53
2023-02-13T23:39:03.073Z,24.37
2023-02-13T23:41:30.479Z,32.73
2023-02-13T23:43:57.269Z,31.40
2023-02-13T23:46:24.166Z,23.83
2023-02-13T23:48:50.994Z,32.70
2023-02-13T23:51:18.468Z,27.40
2023-02-13T23:53:45.377Z,23.80
2023-02-13T23:56:12.153Z,26.63
2023-02-13T23:58:38.950Z,27.87
